KEWB/EWB METAR and TAF weather

Enter ICAO airport designator
Station Type Date Time Source
KEWB METAR 2022/06/25 21:53 UTC NOAA

KEWB 252153Z 17006KT 10SM CLR 28/16 A3008 RMK AO2 SLP185 T02780161


Station Type Date Time Source
KEWB Decoded METAR 2022/06/25 21:53 UTC NOAA

NEW BEDFORD REGIONAL AIRPORT, MA, United States (KEWB) 41-41N 070-58W 23M
Jun 25, 2022 - 05:53 PM EDT / 2022.06.25 2153 UTC
Wind: from the S (170 degrees) at 7 MPH (6 KT):0
Visibility: 10 mile(s):0
Sky conditions: clear
Temperature: 82.0 F (27.8 C)
Dew Point: 61.0 F (16.1 C)
Relative Humidity: 48%
Pressure (altimeter): 30.08 in. Hg (1018 hPa)
ob: KEWB 252153Z 17006KT 10SM CLR 28/16 A3008 RMK AO2 SLP185 T02780161
cycle: 22

Station Type Date Time Source
KEWB TAF UTC NOAA

Error!

Example: see airport list